Decoded Metar for VTCT (CHIANG RAI INTL in THAILAND) (IATA:CEI) | Meteo·Mobile Aviation Weather
aviador You're here:

VTCT Decoded Metar

CHIANG RAI INTL in THAILAND
Report Time2020-02-18 21:00:00
UTC Time2020-02-18 21:35:48
Flight Rules vfr VFR
WindCalm
Visibility9999 m
Phenomena:N/A
Clouds:N/A
Expected CloudBase > 800 ft AGL from Temp-Dew spread
CeilingNone
Temp18°C (ISA +6)
Dew Point16°C (88% RH)
QNH1017 hPa
Density Alt2,044 ft
Elevation1,280 ft
Report Wrong Elevation
Raw Report
VTCT 182100Z 00000KT CAVOK 18/16 Q1017 NOSIG=

Extra information for VTCT:More info

Metar Taf Metar & Taf Last 4 Metars F.Rules Stats Wind Profile Meteogram Temp Stats Airport Information Weather charts Add Link Nearby VenuesMetar ALERT Operation Metar Decoded Social comments